sensor_id;sensor_type;location;lat;lon;timestamp;P1;durP1;ratioP1;P2;durP2;ratioP2
19619;SDS011;9957;52.282;21.110;2023-02-28T00:02:18;121.32;;;35.45;;
19619;SDS011;9957;52.282;21.110;2023-02-28T00:04:44;123.53;;;33.53;;
19619;SDS011;9957;52.282;21.110;2023-02-28T00:07:17;130.43;;;34.05;;
19619;SDS011;9957;52.282;21.110;2023-02-28T00:09:44;133.37;;;33.63;;
19619;SDS011;9957;52.282;21.110;2023-02-28T00:12:10;128.82;;;33.70;;
19619;SDS011;9957;52.282;21.110;2023-02-28T00:14:36;128.55;;;33.40;;
19619;SDS011;9957;52.282;21.110;2023-02-28T00:17:02;126.82;;;32.67;;
19619;SDS011;9957;52.282;21.110;2023-02-28T00:19:28;131.68;;;33.33;;
19619;SDS011;9957;52.282;21.110;2023-02-28T00:21:54;111.30;;;31.07;;
19619;SDS011;9957;52.282;21.110;2023-02-28T00:24:20;110.95;;;30.65;;
19619;SDS011;9957;52.282;21.110;2023-02-28T00:26:46;102.80;;;29.25;;
19619;SDS011;9957;52.282;21.110;2023-02-28T00:29:12;116.57;;;30.80;;
19619;SDS011;9957;52.282;21.110;2023-02-28T00:31:38;113.15;;;32.00;;
19619;SDS011;9957;52.282;21.110;2023-02-28T00:34:04;113.03;;;30.70;;
19619;SDS011;9957;52.282;21.110;2023-02-28T00:36:30;118.40;;;31.57;;
19619;SDS011;9957;52.282;21.110;2023-02-28T00:38:56;118.95;;;31.83;;
19619;SDS011;9957;52.282;21.110;2023-02-28T00:41:22;111.82;;;32.78;;
19619;SDS011;9957;52.282;21.110;2023-02-28T00:43:48;107.97;;;30.60;;
19619;SDS011;9957;52.282;21.110;2023-02-28T00:46:14;124.43;;;32.13;;
19619;SDS011;9957;52.282;21.110;2023-02-28T00:48:40;112.97;;;31.85;;
19619;SDS011;9957;52.282;21.110;2023-02-28T00:51:06;119.03;;;32.03;;
19619;SDS011;9957;52.282;21.110;2023-02-28T00:53:33;115.45;;;32.58;;
19619;SDS011;9957;52.282;21.110;2023-02-28T00:55:59;124.13;;;33.97;;
19619;SDS011;9957;52.282;21.110;2023-02-28T00:58:25;116.93;;;32.40;;
19619;SDS011;9957;52.282;21.110;2023-02-28T01:00:51;122.38;;;31.83;;
19619;SDS011;9957;52.282;21.110;2023-02-28T01:03:18;115.63;;;30.70;;
19619;SDS011;9957;52.282;21.110;2023-02-28T01:05:45;129.30;;;33.53;;
19619;SDS011;9957;52.282;21.110;2023-02-28T01:08:11;155.80;;;39.47;;
19619;SDS011;9957;52.282;21.110;2023-02-28T01:10:38;133.70;;;33.00;;
19619;SDS011;9957;52.282;21.110;2023-02-28T01:13:05;182.48;;;43.08;;
19619;SDS011;9957;52.282;21.110;2023-02-28T01:15:31;172.80;;;42.05;;
19619;SDS011;9957;52.282;21.110;2023-02-28T01:17:58;115.03;;;29.03;;
19619;SDS011;9957;52.282;21.110;2023-02-28T01:20:24;100.53;;;25.10;;
19619;SDS011;9957;52.282;21.110;2023-02-28T01:22:50;121.70;;;30.88;;
19619;SDS011;9957;52.282;21.110;2023-02-28T01:25:16;98.47;;;25.27;;
19619;SDS011;9957;52.282;21.110;2023-02-28T01:27:42;94.67;;;23.07;;
19619;SDS011;9957;52.282;21.110;2023-02-28T01:30:08;136.23;;;27.40;;
19619;SDS011;9957;52.282;21.110;2023-02-28T01:32:35;135.13;;;28.80;;
19619;SDS011;9957;52.282;21.110;2023-02-28T01:35:01;159.77;;;30.90;;
19619;SDS011;9957;52.282;21.110;2023-02-28T01:37:27;124.50;;;28.83;;
19619;SDS011;9957;52.282;21.110;2023-02-28T01:39:53;126.40;;;27.23;;
19619;SDS011;9957;52.282;21.110;2023-02-28T01:42:19;118.80;;;28.20;;
19619;SDS011;9957;52.282;21.110;2023-02-28T01:47:32;125.37;;;28.07;;
19619;SDS011;9957;52.282;21.110;2023-02-28T01:49:58;100.07;;;26.07;;
19619;SDS011;9957;52.282;21.110;2023-02-28T01:52:26;123.87;;;28.47;;
19619;SDS011;9957;52.282;21.110;2023-02-28T01:54:54;120.27;;;26.77;;
19619;SDS011;9957;52.282;21.110;2023-02-28T01:57:22;111.70;;;25.50;;
19619;SDS011;9957;52.282;21.110;2023-02-28T01:59:57;97.17;;;23.73;;
19619;SDS011;9957;52.282;21.110;2023-02-28T02:02:25;93.13;;;23.33;;
19619;SDS011;9957;52.282;21.110;2023-02-28T02:05:02;92.93;;;24.33;;
19619;SDS011;9957;52.282;21.110;2023-02-28T02:07:29;93.40;;;23.90;;
19619;SDS011;9957;52.282;21.110;2023-02-28T02:09:59;95.77;;;23.27;;
19619;SDS011;9957;52.282;21.110;2023-02-28T02:13:09;90.70;;;22.83;;
19619;SDS011;9957;52.282;21.110;2023-02-28T02:15:34;90.53;;;23.30;;
19619;SDS011;9957;52.282;21.110;2023-02-28T02:20:51;92.60;;;24.70;;
19619;SDS011;9957;52.282;21.110;2023-02-28T02:39:35;90.53;;;23.50;;
19619;SDS011;9957;52.282;21.110;2023-02-28T02:42:04;94.70;;;24.57;;
19619;SDS011;9957;52.282;21.110;2023-02-28T02:44:40;82.57;;;23.37;;
19619;SDS011;9957;52.282;21.110;2023-02-28T02:47:10;63.27;;;19.83;;
19619;SDS011;9957;52.282;21.110;2023-02-28T02:49:38;65.33;;;18.93;;
19619;SDS011;9957;52.282;21.110;2023-02-28T02:52:06;57.30;;;16.90;;
19619;SDS011;9957;52.282;21.110;2023-02-28T02:54:35;67.80;;;18.50;;
19619;SDS011;9957;52.282;21.110;2023-02-28T02:57:07;60.30;;;16.40;;
19619;SDS011;9957;52.282;21.110;2023-02-28T02:59:35;65.70;;;17.80;;
19619;SDS011;9957;52.282;21.110;2023-02-28T03:02:02;66.10;;;19.17;;
19619;SDS011;9957;52.282;21.110;2023-02-28T03:04:30;63.77;;;18.40;;
19619;SDS011;9957;52.282;21.110;2023-02-28T03:06:58;63.17;;;17.83;;
19619;SDS011;9957;52.282;21.110;2023-02-28T03:09:24;65.77;;;19.63;;
19619;SDS011;9957;52.282;21.110;2023-02-28T03:11:51;66.97;;;20.27;;
19619;SDS011;9957;52.282;21.110;2023-02-28T03:14:22;70.93;;;20.00;;
19619;SDS011;9957;52.282;21.110;2023-02-28T03:19:45;69.80;;;21.53;;
19619;SDS011;9957;52.282;21.110;2023-02-28T03:22:14;53.47;;;19.90;;
19619;SDS011;9957;52.282;21.110;2023-02-28T03:27:12;71.70;;;20.57;;
19619;SDS011;9957;52.282;21.110;2023-02-28T03:29:40;64.53;;;19.63;;
19619;SDS011;9957;52.282;21.110;2023-02-28T03:32:12;68.93;;;19.80;;
19619;SDS011;9957;52.282;21.110;2023-02-28T03:35:27;72.80;;;19.03;;
19619;SDS011;9957;52.282;21.110;2023-02-28T03:37:30;68.63;;;18.87;;
19619;SDS011;9957;52.282;21.110;2023-02-28T03:40:03;66.87;;;17.03;;
19619;SDS011;9957;52.282;21.110;2023-02-28T03:42:31;62.00;;;16.33;;
19619;SDS011;9957;52.282;21.110;2023-02-28T03:45:00;55.57;;;16.17;;
19619;SDS011;9957;52.282;21.110;2023-02-28T03:50:18;62.77;;;16.37;;
19619;SDS011;9957;52.282;21.110;2023-02-28T03:52:44;59.47;;;15.90;;
19619;SDS011;9957;52.282;21.110;2023-02-28T03:55:12;66.90;;;16.80;;
19619;SDS011;9957;52.282;21.110;2023-02-28T04:00:30;56.93;;;16.30;;
19619;SDS011;9957;52.282;21.110;2023-02-28T04:02:57;66.73;;;15.97;;
19619;SDS011;9957;52.282;21.110;2023-02-28T04:05:24;46.13;;;16.10;;
19619;SDS011;9957;52.282;21.110;2023-02-28T04:07:50;55.30;;;16.10;;
19619;SDS011;9957;52.282;21.110;2023-02-28T04:10:16;58.27;;;17.03;;
19619;SDS011;9957;52.282;21.110;2023-02-28T04:12:42;52.97;;;16.63;;
19619;SDS011;9957;52.282;21.110;2023-02-28T04:15:08;54.87;;;16.63;;
19619;SDS011;9957;52.282;21.110;2023-02-28T04:17:36;54.57;;;16.10;;
19619;SDS011;9957;52.282;21.110;2023-02-28T04:20:02;48.33;;;14.77;;
19619;SDS011;9957;52.282;21.110;2023-02-28T04:22:28;68.30;;;20.03;;
19619;SDS011;9957;52.282;21.110;2023-02-28T04:24:54;57.33;;;17.47;;
19619;SDS011;9957;52.282;21.110;2023-02-28T04:27:21;58.63;;;17.53;;
19619;SDS011;9957;52.282;21.110;2023-02-28T04:29:47;49.53;;;15.93;;
19619;SDS011;9957;52.282;21.110;2023-02-28T04:32:13;83.77;;;17.83;;
19619;SDS011;9957;52.282;21.110;2023-02-28T04:34:39;65.53;;;17.27;;
19619;SDS011;9957;52.282;21.110;2023-02-28T04:37:05;53.93;;;15.83;;
19619;SDS011;9957;52.282;21.110;2023-02-28T04:39:34;69.53;;;16.53;;
19619;SDS011;9957;52.282;21.110;2023-02-28T04:42:00;70.03;;;16.33;;
19619;SDS011;9957;52.282;21.110;2023-02-28T04:44:26;63.60;;;15.90;;
19619;SDS011;9957;52.282;21.110;2023-02-28T04:46:52;53.07;;;16.07;;
19619;SDS011;9957;52.282;21.110;2023-02-28T04:49:18;55.70;;;15.67;;
19619;SDS011;9957;52.282;21.110;2023-02-28T04:51:44;60.10;;;15.23;;
19619;SDS011;9957;52.282;21.110;2023-02-28T04:54:10;58.23;;;15.77;;
19619;SDS011;9957;52.282;21.110;2023-02-28T04:56:36;65.80;;;16.10;;
19619;SDS011;9957;52.282;21.110;2023-02-28T04:59:02;61.93;;;16.33;;
19619;SDS011;9957;52.282;21.110;2023-02-28T05:01:30;61.07;;;15.33;;
19619;SDS011;9957;52.282;21.110;2023-02-28T05:03:57;57.40;;;16.80;;
19619;SDS011;9957;52.282;21.110;2023-02-28T05:06:25;53.60;;;16.40;;
19619;SDS011;9957;52.282;21.110;2023-02-28T05:08:52;76.90;;;16.87;;
19619;SDS011;9957;52.282;21.110;2023-02-28T05:11:29;68.10;;;15.80;;
19619;SDS011;9957;52.282;21.110;2023-02-28T05:13:59;67.87;;;16.93;;
19619;SDS011;9957;52.282;21.110;2023-02-28T05:16:26;53.77;;;15.80;;
19619;SDS011;9957;52.282;21.110;2023-02-28T05:18:52;74.67;;;17.23;;
19619;SDS011;9957;52.282;21.110;2023-02-28T05:23:54;91.33;;;18.07;;
19619;SDS011;9957;52.282;21.110;2023-02-28T05:26:20;93.27;;;17.93;;
19619;SDS011;9957;52.282;21.110;2023-02-28T05:28:46;105.30;;;16.90;;
19619;SDS011;9957;52.282;21.110;2023-02-28T05:31:13;86.47;;;17.73;;
19619;SDS011;9957;52.282;21.110;2023-02-28T05:33:39;85.93;;;18.50;;
19619;SDS011;9957;52.282;21.110;2023-02-28T05:36:05;69.23;;;17.03;;
19619;SDS011;9957;52.282;21.110;2023-02-28T05:38:32;88.93;;;17.47;;
19619;SDS011;9957;52.282;21.110;2023-02-28T05:40:58;84.30;;;19.53;;
19619;SDS011;9957;52.282;21.110;2023-02-28T05:43:24;81.53;;;20.43;;
19619;SDS011;9957;52.282;21.110;2023-02-28T05:45:50;82.97;;;21.10;;
19619;SDS011;9957;52.282;21.110;2023-02-28T05:48:16;82.70;;;22.30;;
19619;SDS011;9957;52.282;21.110;2023-02-28T05:50:43;84.03;;;21.30;;
19619;SDS011;9957;52.282;21.110;2023-02-28T05:53:11;90.93;;;22.97;;
19619;SDS011;9957;52.282;21.110;2023-02-28T05:55:37;88.63;;;22.73;;
19619;SDS011;9957;52.282;21.110;2023-02-28T05:58:03;90.27;;;21.67;;
19619;SDS011;9957;52.282;21.110;2023-02-28T06:00:29;93.53;;;24.37;;
19619;SDS011;9957;52.282;21.110;2023-02-28T06:02:55;99.60;;;27.07;;
19619;SDS011;9957;52.282;21.110;2023-02-28T06:05:24;101.73;;;26.90;;
19619;SDS011;9957;52.282;21.110;2023-02-28T06:07:50;111.47;;;26.57;;
19619;SDS011;9957;52.282;21.110;2023-02-28T06:10:16;99.67;;;25.27;;
19619;SDS011;9957;52.282;21.110;2023-02-28T06:12:43;104.53;;;25.90;;
19619;SDS011;9957;52.282;21.110;2023-02-28T06:15:15;97.30;;;24.33;;
19619;SDS011;9957;52.282;21.110;2023-02-28T06:17:42;95.03;;;23.33;;
19619;SDS011;9957;52.282;21.110;2023-02-28T06:20:08;87.40;;;22.17;;
19619;SDS011;9957;52.282;21.110;2023-02-28T06:25:05;71.33;;;20.37;;
19619;SDS011;9957;52.282;21.110;2023-02-28T06:27:32;65.63;;;18.33;;
19619;SDS011;9957;52.282;21.110;2023-02-28T06:29:58;85.60;;;19.30;;
19619;SDS011;9957;52.282;21.110;2023-02-28T06:32:24;65.63;;;18.30;;
19619;SDS011;9957;52.282;21.110;2023-02-28T06:34:50;68.23;;;15.90;;
19619;SDS011;9957;52.282;21.110;2023-02-28T06:37:17;58.87;;;13.40;;
19619;SDS011;9957;52.282;21.110;2023-02-28T06:39:43;108.63;;;15.73;;
19619;SDS011;9957;52.282;21.110;2023-02-28T06:42:09;53.37;;;13.43;;
19619;SDS011;9957;52.282;21.110;2023-02-28T06:44:35;64.87;;;14.87;;
19619;SDS011;9957;52.282;21.110;2023-02-28T06:47:02;68.97;;;15.13;;
19619;SDS011;9957;52.282;21.110;2023-02-28T06:49:31;77.47;;;16.60;;
19619;SDS011;9957;52.282;21.110;2023-02-28T06:51:57;92.23;;;16.80;;
19619;SDS011;9957;52.282;21.110;2023-02-28T09:57:17;24.48;;;9.18;;
19619;SDS011;9957;52.282;21.110;2023-02-28T10:26:50;17.17;;;9.35;;
19619;SDS011;9957;52.282;21.110;2023-02-28T10:29:18;19.05;;;8.43;;
19619;SDS011;9957;52.282;21.110;2023-02-28T10:31:44;15.57;;;9.38;;
19619;SDS011;9957;52.282;21.110;2023-02-28T10:34:11;22.48;;;9.38;;
19619;SDS011;9957;52.282;21.110;2023-02-28T10:36:38;17.95;;;8.63;;
19619;SDS011;9957;52.282;21.110;2023-02-28T10:39:33;21.15;;;9.18;;
19619;SDS011;9957;52.282;21.110;2023-02-28T10:41:50;20.40;;;9.10;;
19619;SDS011;9957;52.282;21.110;2023-02-28T10:44:20;17.25;;;8.43;;
19619;SDS011;9957;52.282;21.110;2023-02-28T10:46:47;26.77;;;9.20;;
19619;SDS011;9957;52.282;21.110;2023-02-28T10:49:24;18.30;;;8.85;;
19619;SDS011;9957;52.282;21.110;2023-02-28T10:51:52;18.17;;;9.50;;
19619;SDS011;9957;52.282;21.110;2023-02-28T10:54:22;18.08;;;10.20;;
19619;SDS011;9957;52.282;21.110;2023-02-28T10:57:08;17.23;;;9.70;;
19619;SDS011;9957;52.282;21.110;2023-02-28T10:59:34;28.27;;;13.15;;
19619;SDS011;9957;52.282;21.110;2023-02-28T11:02:01;33.13;;;15.73;;
19619;SDS011;9957;52.282;21.110;2023-02-28T11:09:31;23.43;;;10.80;;
19619;SDS011;9957;52.282;21.110;2023-02-28T11:11:59;24.00;;;9.37;;
19619;SDS011;9957;52.282;21.110;2023-02-28T11:14:27;23.30;;;11.30;;
19619;SDS011;9957;52.282;21.110;2023-02-28T11:16:54;20.40;;;10.33;;
19619;SDS011;9957;52.282;21.110;2023-02-28T11:19:23;22.13;;;10.03;;
19619;SDS011;9957;52.282;21.110;2023-02-28T13:31:01;20.97;;;8.03;;
19619;SDS011;9957;52.282;21.110;2023-02-28T13:33:35;26.87;;;9.80;;
19619;SDS011;9957;52.282;21.110;2023-02-28T13:38:55;21.53;;;7.53;;
19619;SDS011;9957;52.282;21.110;2023-02-28T13:46:30;28.07;;;7.60;;
19619;SDS011;9957;52.282;21.110;2023-02-28T13:49:17;39.60;;;9.33;;
19619;SDS011;9957;52.282;21.110;2023-02-28T13:51:44;26.80;;;7.97;;
19619;SDS011;9957;52.282;21.110;2023-02-28T13:56:57;28.47;;;7.73;;
19619;SDS011;9957;52.282;21.110;2023-02-28T14:05:21;20.53;;;7.43;;
19619;SDS011;9957;52.282;21.110;2023-02-28T14:07:57;20.93;;;7.70;;
19619;SDS011;9957;52.282;21.110;2023-02-28T14:10:25;21.40;;;7.53;;
19619;SDS011;9957;52.282;21.110;2023-02-28T14:18:01;17.67;;;7.63;;
19619;SDS011;9957;52.282;21.110;2023-02-28T14:20:29;34.47;;;7.67;;
19619;SDS011;9957;52.282;21.110;2023-02-28T14:25:36;27.90;;;9.30;;
19619;SDS011;9957;52.282;21.110;2023-02-28T14:30:57;34.20;;;8.33;;
19619;SDS011;9957;52.282;21.110;2023-02-28T14:33:38;23.23;;;8.17;;
19619;SDS011;9957;52.282;21.110;2023-02-28T14:38:40;22.17;;;7.67;;
19619;SDS011;9957;52.282;21.110;2023-02-28T14:41:13;42.90;;;9.60;;
19619;SDS011;9957;52.282;21.110;2023-02-28T14:43:52;24.50;;;8.80;;
19619;SDS011;9957;52.282;21.110;2023-02-28T14:46:18;24.93;;;9.03;;
19619;SDS011;9957;52.282;21.110;2023-02-28T14:48:45;49.90;;;13.90;;
19619;SDS011;9957;52.282;21.110;2023-02-28T14:51:11;39.40;;;14.33;;
19619;SDS011;9957;52.282;21.110;2023-02-28T14:53:38;79.43;;;25.70;;
19619;SDS011;9957;52.282;21.110;2023-02-28T14:56:04;35.50;;;11.60;;
19619;SDS011;9957;52.282;21.110;2023-02-28T14:58:31;30.07;;;9.83;;
19619;SDS011;9957;52.282;21.110;2023-02-28T15:01:01;58.67;;;10.20;;
19619;SDS011;9957;52.282;21.110;2023-02-28T15:03:32;42.80;;;10.40;;
19619;SDS011;9957;52.282;21.110;2023-02-28T15:05:59;36.50;;;9.33;;
19619;SDS011;9957;52.282;21.110;2023-02-28T15:08:27;22.30;;;8.07;;
19619;SDS011;9957;52.282;21.110;2023-02-28T15:13:23;50.57;;;12.23;;
19619;SDS011;9957;52.282;21.110;2023-02-28T15:15:53;33.13;;;9.83;;
19619;SDS011;9957;52.282;21.110;2023-02-28T15:20:49;36.03;;;9.77;;
19619;SDS011;9957;52.282;21.110;2023-02-28T15:23:15;40.57;;;8.37;;
19619;SDS011;9957;52.282;21.110;2023-02-28T15:25:43;28.20;;;8.00;;
19619;SDS011;9957;52.282;21.110;2023-02-28T15:28:11;25.43;;;7.73;;
19619;SDS011;9957;52.282;21.110;2023-02-28T15:30:39;30.17;;;8.83;;
19619;SDS011;9957;52.282;21.110;2023-02-28T15:35:42;38.87;;;11.87;;
19619;SDS011;9957;52.282;21.110;2023-02-28T15:38:21;40.30;;;10.87;;
19619;SDS011;9957;52.282;21.110;2023-02-28T15:40:53;34.60;;;11.77;;
19619;SDS011;9957;52.282;21.110;2023-02-28T15:43:24;37.53;;;12.53;;
19619;SDS011;9957;52.282;21.110;2023-02-28T15:48:30;34.07;;;11.87;;
19619;SDS011;9957;52.282;21.110;2023-02-28T15:51:01;36.17;;;11.80;;
19619;SDS011;9957;52.282;21.110;2023-02-28T15:53:36;66.80;;;12.27;;
19619;SDS011;9957;52.282;21.110;2023-02-28T15:56:21;34.30;;;10.57;;
19619;SDS011;9957;52.282;21.110;2023-02-28T15:58:47;45.27;;;11.70;;
19619;SDS011;9957;52.282;21.110;2023-02-28T16:01:24;31.57;;;10.87;;
19619;SDS011;9957;52.282;21.110;2023-02-28T16:03:51;45.63;;;11.13;;
19619;SDS011;9957;52.282;21.110;2023-02-28T16:08:47;114.67;;;14.57;;
19619;SDS011;9957;52.282;21.110;2023-02-28T16:11:16;111.80;;;19.23;;
19619;SDS011;9957;52.282;21.110;2023-02-28T16:13:42;62.27;;;13.20;;
19619;SDS011;9957;52.282;21.110;2023-02-28T16:16:08;183.93;;;39.25;;
19619;SDS011;9957;52.282;21.110;2023-02-28T16:18:40;192.93;;;41.15;;
19619;SDS011;9957;52.282;21.110;2023-02-28T16:21:06;179.55;;;51.45;;
19619;SDS011;9957;52.282;21.110;2023-02-28T16:23:32;140.57;;;41.45;;
19619;SDS011;9957;52.282;21.110;2023-02-28T16:25:58;230.43;;;49.00;;
19619;SDS011;9957;52.282;21.110;2023-02-28T16:28:26;143.77;;;37.28;;
19619;SDS011;9957;52.282;21.110;2023-02-28T16:30:56;90.63;;;26.05;;
19619;SDS011;9957;52.282;21.110;2023-02-28T16:33:22;106.17;;;34.83;;
19619;SDS011;9957;52.282;21.110;2023-02-28T16:35:49;124.53;;;40.42;;
19619;SDS011;9957;52.282;21.110;2023-02-28T16:38:15;171.82;;;43.80;;
19619;SDS011;9957;52.282;21.110;2023-02-28T16:40:41;163.95;;;43.35;;
19619;SDS011;9957;52.282;21.110;2023-02-28T16:43:07;137.10;;;37.40;;
19619;SDS011;9957;52.282;21.110;2023-02-28T16:45:38;83.68;;;25.83;;
19619;SDS011;9957;52.282;21.110;2023-02-28T16:48:04;94.55;;;23.92;;
19619;SDS011;9957;52.282;21.110;2023-02-28T16:50:30;96.95;;;25.15;;
19619;SDS011;9957;52.282;21.110;2023-02-28T16:52:59;105.35;;;26.05;;
19619;SDS011;9957;52.282;21.110;2023-02-28T16:55:26;139.68;;;27.52;;
19619;SDS011;9957;52.282;21.110;2023-02-28T16:57:53;85.77;;;27.80;;
19619;SDS011;9957;52.282;21.110;2023-02-28T17:00:20;182.02;;;31.80;;
19619;SDS011;9957;52.282;21.110;2023-02-28T17:02:46;97.80;;;25.58;;
19619;SDS011;9957;52.282;21.110;2023-02-28T17:05:13;95.45;;;25.33;;
19619;SDS011;9957;52.282;21.110;2023-02-28T17:07:40;106.95;;;27.30;;
19619;SDS011;9957;52.282;21.110;2023-02-28T17:10:25;109.95;;;28.98;;
19619;SDS011;9957;52.282;21.110;2023-02-28T17:12:51;139.60;;;34.13;;
19619;SDS011;9957;52.282;21.110;2023-02-28T17:15:18;120.83;;;32.90;;
19619;SDS011;9957;52.282;21.110;2023-02-28T17:17:45;156.60;;;38.65;;
19619;SDS011;9957;52.282;21.110;2023-02-28T17:20:12;172.23;;;39.42;;
19619;SDS011;9957;52.282;21.110;2023-02-28T17:22:39;180.45;;;37.95;;
19619;SDS011;9957;52.282;21.110;2023-02-28T17:25:05;218.77;;;39.13;;
19619;SDS011;9957;52.282;21.110;2023-02-28T17:27:31;140.45;;;38.72;;
19619;SDS011;9957;52.282;21.110;2023-02-28T17:29:57;200.48;;;42.42;;
19619;SDS011;9957;52.282;21.110;2023-02-28T17:32:23;186.10;;;41.80;;
19619;SDS011;9957;52.282;21.110;2023-02-28T17:34:50;143.65;;;45.88;;
19619;SDS011;9957;52.282;21.110;2023-02-28T17:37:16;161.13;;;44.73;;
19619;SDS011;9957;52.282;21.110;2023-02-28T17:39:42;230.63;;;48.25;;
19619;SDS011;9957;52.282;21.110;2023-02-28T17:42:08;188.32;;;45.10;;
19619;SDS011;9957;52.282;21.110;2023-02-28T17:44:34;214.63;;;40.67;;
19619;SDS011;9957;52.282;21.110;2023-02-28T17:47:02;164.93;;;45.50;;
19619;SDS011;9957;52.282;21.110;2023-02-28T17:49:28;164.97;;;40.27;;
19619;SDS011;9957;52.282;21.110;2023-02-28T17:51:54;162.73;;;42.00;;
19619;SDS011;9957;52.282;21.110;2023-02-28T17:54:20;175.32;;;42.20;;
19619;SDS011;9957;52.282;21.110;2023-02-28T17:56:46;197.00;;;40.25;;
19619;SDS011;9957;52.282;21.110;2023-02-28T17:59:12;144.30;;;35.58;;
19619;SDS011;9957;52.282;21.110;2023-02-28T18:01:39;88.97;;;29.77;;
19619;SDS011;9957;52.282;21.110;2023-02-28T18:04:05;98.80;;;30.98;;
19619;SDS011;9957;52.282;21.110;2023-02-28T18:06:34;111.60;;;34.17;;
19619;SDS011;9957;52.282;21.110;2023-02-28T18:09:01;203.48;;;34.53;;
19619;SDS011;9957;52.282;21.110;2023-02-28T18:11:27;146.85;;;34.35;;
19619;SDS011;9957;52.282;21.110;2023-02-28T18:14:06;94.30;;;29.33;;
19619;SDS011;9957;52.282;21.110;2023-02-28T18:16:32;119.68;;;33.05;;
19619;SDS011;9957;52.282;21.110;2023-02-28T18:18:58;101.80;;;30.50;;
19619;SDS011;9957;52.282;21.110;2023-02-28T18:21:27;111.20;;;33.28;;
19619;SDS011;9957;52.282;21.110;2023-02-28T18:23:53;120.10;;;36.17;;
19619;SDS011;9957;52.282;21.110;2023-02-28T18:26:19;83.78;;;26.73;;
19619;SDS011;9957;52.282;21.110;2023-02-28T18:28:46;83.78;;;25.27;;
19619;SDS011;9957;52.282;21.110;2023-02-28T18:31:13;142.55;;;32.13;;
19619;SDS011;9957;52.282;21.110;2023-02-28T18:33:40;88.03;;;26.98;;
19619;SDS011;9957;52.282;21.110;2023-02-28T18:36:06;98.32;;;28.33;;
19619;SDS011;9957;52.282;21.110;2023-02-28T18:38:32;88.60;;;28.60;;
19619;SDS011;9957;52.282;21.110;2023-02-28T18:41:00;101.93;;;27.80;;
19619;SDS011;9957;52.282;21.110;2023-02-28T18:43:27;92.60;;;28.55;;
19619;SDS011;9957;52.282;21.110;2023-02-28T18:45:53;115.35;;;31.17;;
19619;SDS011;9957;52.282;21.110;2023-02-28T18:48:19;89.05;;;31.88;;
19619;SDS011;9957;52.282;21.110;2023-02-28T18:50:47;96.03;;;30.03;;
19619;SDS011;9957;52.282;21.110;2023-02-28T18:53:14;81.43;;;28.48;;
19619;SDS011;9957;52.282;21.110;2023-02-28T18:55:40;83.72;;;29.27;;
19619;SDS011;9957;52.282;21.110;2023-02-28T18:58:06;90.05;;;30.27;;
19619;SDS011;9957;52.282;21.110;2023-02-28T19:00:33;98.78;;;36.47;;
19619;SDS011;9957;52.282;21.110;2023-02-28T19:02:59;127.20;;;42.80;;
19619;SDS011;9957;52.282;21.110;2023-02-28T19:05:25;136.23;;;45.40;;
19619;SDS011;9957;52.282;21.110;2023-02-28T19:07:55;138.23;;;45.22;;
19619;SDS011;9957;52.282;21.110;2023-02-28T19:10:21;158.55;;;48.03;;
19619;SDS011;9957;52.282;21.110;2023-02-28T19:12:47;188.02;;;50.30;;
19619;SDS011;9957;52.282;21.110;2023-02-28T19:15:13;163.95;;;49.25;;
19619;SDS011;9957;52.282;21.110;2023-02-28T19:17:39;170.33;;;52.03;;
19619;SDS011;9957;52.282;21.110;2023-02-28T19:20:06;195.85;;;55.03;;
19619;SDS011;9957;52.282;21.110;2023-02-28T19:22:32;192.20;;;57.67;;
19619;SDS011;9957;52.282;21.110;2023-02-28T19:24:58;213.15;;;61.33;;
19619;SDS011;9957;52.282;21.110;2023-02-28T19:27:24;168.32;;;50.47;;
19619;SDS011;9957;52.282;21.110;2023-02-28T19:29:50;180.55;;;53.20;;
19619;SDS011;9957;52.282;21.110;2023-02-28T19:32:17;212.65;;;61.40;;
19619;SDS011;9957;52.282;21.110;2023-02-28T19:34:44;195.43;;;58.78;;
19619;SDS011;9957;52.282;21.110;2023-02-28T19:37:11;238.60;;;69.47;;
19619;SDS011;9957;52.282;21.110;2023-02-28T19:39:37;213.57;;;63.95;;
19619;SDS011;9957;52.282;21.110;2023-02-28T19:42:07;221.68;;;61.15;;
19619;SDS011;9957;52.282;21.110;2023-02-28T19:44:33;291.63;;;78.53;;
19619;SDS011;9957;52.282;21.110;2023-02-28T19:46:59;336.23;;;82.70;;
19619;SDS011;9957;52.282;21.110;2023-02-28T19:49:25;281.45;;;78.10;;
19619;SDS011;9957;52.282;21.110;2023-02-28T19:51:51;266.93;;;67.03;;
19619;SDS011;9957;52.282;21.110;2023-02-28T19:54:17;264.30;;;65.03;;
19619;SDS011;9957;52.282;21.110;2023-02-28T19:56:43;266.77;;;65.60;;
19619;SDS011;9957;52.282;21.110;2023-02-28T19:59:09;349.80;;;87.77;;
19619;SDS011;9957;52.282;21.110;2023-02-28T20:01:36;392.27;;;93.90;;
19619;SDS011;9957;52.282;21.110;2023-02-28T20:04:02;436.33;;;98.47;;
19619;SDS011;9957;52.282;21.110;2023-02-28T20:06:32;393.30;;;90.80;;
19619;SDS011;9957;52.282;21.110;2023-02-28T20:08:59;457.85;;;109.35;;
19619;SDS011;9957;52.282;21.110;2023-02-28T20:11:25;417.33;;;105.30;;
19619;SDS011;9957;52.282;21.110;2023-02-28T20:13:51;446.63;;;104.40;;
19619;SDS011;9957;52.282;21.110;2023-02-28T20:16:18;383.33;;;96.22;;
19619;SDS011;9957;52.282;21.110;2023-02-28T20:18:47;374.60;;;94.53;;
19619;SDS011;9957;52.282;21.110;2023-02-28T20:21:15;649.30;;;170.68;;
19619;SDS011;9957;52.282;21.110;2023-02-28T20:23:41;988.33;;;322.27;;
19619;SDS011;9957;52.282;21.110;2023-02-28T20:26:08;844.33;;;259.48;;
19619;SDS011;9957;52.282;21.110;2023-02-28T20:28:34;681.13;;;195.17;;
19619;SDS011;9957;52.282;21.110;2023-02-28T20:31:00;515.67;;;138.48;;
19619;SDS011;9957;52.282;21.110;2023-02-28T20:33:26;637.08;;;169.93;;
19619;SDS011;9957;52.282;21.110;2023-02-28T20:35:59;355.25;;;93.30;;
19619;SDS011;9957;52.282;21.110;2023-02-28T20:38:25;521.25;;;132.00;;
19619;SDS011;9957;52.282;21.110;2023-02-28T20:40:57;577.72;;;150.77;;
19619;SDS011;9957;52.282;21.110;2023-02-28T20:43:23;598.85;;;158.55;;
19619;SDS011;9957;52.282;21.110;2023-02-28T20:45:50;645.72;;;172.52;;
19619;SDS011;9957;52.282;21.110;2023-02-28T20:48:17;654.80;;;178.07;;
19619;SDS011;9957;52.282;21.110;2023-02-28T20:50:47;675.43;;;183.37;;
19619;SDS011;9957;52.282;21.110;2023-02-28T20:53:13;684.50;;;184.75;;
19619;SDS011;9957;52.282;21.110;2023-02-28T20:55:39;697.75;;;187.45;;
19619;SDS011;9957;52.282;21.110;2023-02-28T20:58:05;638.90;;;167.52;;
19619;SDS011;9957;52.282;21.110;2023-02-28T21:00:31;756.45;;;201.55;;
19619;SDS011;9957;52.282;21.110;2023-02-28T21:02:57;683.75;;;175.57;;
19619;SDS011;9957;52.282;21.110;2023-02-28T21:05:23;701.17;;;189.15;;
19619;SDS011;9957;52.282;21.110;2023-02-28T21:07:49;664.78;;;182.85;;
19619;SDS011;9957;52.282;21.110;2023-02-28T21:10:15;658.60;;;175.10;;
19619;SDS011;9957;52.282;21.110;2023-02-28T21:12:42;670.83;;;179.10;;
19619;SDS011;9957;52.282;21.110;2023-02-28T21:15:08;657.05;;;172.57;;
19619;SDS011;9957;52.282;21.110;2023-02-28T21:17:34;633.88;;;170.30;;
19619;SDS011;9957;52.282;21.110;2023-02-28T21:20:00;638.05;;;170.77;;
19619;SDS011;9957;52.282;21.110;2023-02-28T21:22:26;630.53;;;163.35;;
19619;SDS011;9957;52.282;21.110;2023-02-28T21:24:52;627.25;;;162.20;;